sensor_id;sensor_type;location;lat;lon;timestamp;pressure;altitude;pressure_sealevel;temperature;humidity
46199;BME280;31928;52.104;10.030;2023-08-08T00:01:06;100221.59;;;17.42;52.50
46199;BME280;31928;52.104;10.030;2023-08-08T00:03:34;100226.19;;;17.41;52.33
46199;BME280;31928;52.104;10.030;2023-08-08T00:06:01;100221.31;;;17.38;52.44
46199;BME280;31928;52.104;10.030;2023-08-08T00:08:27;100219.66;;;17.37;52.56
46199;BME280;31928;52.104;10.030;2023-08-08T00:10:54;100218.25;;;17.71;50.73
46199;BME280;31928;52.104;10.030;2023-08-08T00:13:21;100217.00;;;17.42;52.94
46199;BME280;31928;52.104;10.030;2023-08-08T00:15:47;100220.19;;;17.34;53.23
46199;BME280;31928;52.104;10.030;2023-08-08T00:18:14;100213.94;;;17.34;52.99
46199;BME280;31928;52.104;10.030;2023-08-08T00:20:41;100215.53;;;17.66;51.54
46199;BME280;31928;52.104;10.030;2023-08-08T00:23:07;100220.19;;;17.34;53.45
46199;BME280;31928;52.104;10.030;2023-08-08T00:25:35;100223.66;;;17.66;51.55
46199;BME280;31928;52.104;10.030;2023-08-08T00:28:02;100210.47;;;17.38;53.00
46199;BME280;31928;52.104;10.030;2023-08-08T00:30:28;100208.25;;;17.30;53.63
46199;BME280;31928;52.104;10.030;2023-08-08T00:32:55;100201.94;;;17.61;51.98
46199;BME280;31928;52.104;10.030;2023-08-08T00:35:21;100193.63;;;17.31;53.19
46199;BME280;31928;52.104;10.030;2023-08-08T00:37:48;100190.03;;;17.62;51.38
46199;BME280;31928;52.104;10.030;2023-08-08T00:40:15;100189.00;;;17.32;53.33
46199;BME280;31928;52.104;10.030;2023-08-08T00:42:42;100183.28;;;17.28;53.97
46199;BME280;31928;52.104;10.030;2023-08-08T00:45:08;100190.53;;;17.59;52.04
46199;BME280;31928;52.104;10.030;2023-08-08T00:47:35;100187.38;;;17.31;53.67
46199;BME280;31928;52.104;10.030;2023-08-08T00:50:02;100179.50;;;17.29;53.89
46199;BME280;31928;52.104;10.030;2023-08-08T00:52:30;100180.84;;;17.27;53.80
46199;BME280;31928;52.104;10.030;2023-08-08T00:54:57;100179.19;;;17.26;53.75
46199;BME280;31928;52.104;10.030;2023-08-08T00:57:24;100187.81;;;17.23;54.20
46199;BME280;31928;52.104;10.030;2023-08-08T00:59:51;100176.19;;;17.22;53.88
46199;BME280;31928;52.104;10.030;2023-08-08T01:02:17;100166.75;;;17.25;54.05
46199;BME280;31928;52.104;10.030;2023-08-08T01:04:44;100178.91;;;17.22;53.87
46199;BME280;31928;52.104;10.030;2023-08-08T01:07:33;100168.16;;;17.37;53.32
46199;BME280;31928;52.104;10.030;2023-08-08T04:12:09;100064.31;;;17.88;53.41
46199;BME280;31928;52.104;10.030;2023-08-08T04:14:35;100065.66;;;17.85;53.46
46199;BME280;31928;52.104;10.030;2023-08-08T04:17:02;100069.72;;;17.83;53.53
46199;BME280;31928;52.104;10.030;2023-08-08T04:19:30;100071.59;;;17.82;53.82
46199;BME280;31928;52.104;10.030;2023-08-08T04:21:56;100081.66;;;17.82;53.77
46199;BME280;31928;52.104;10.030;2023-08-08T04:24:24;100075.94;;;17.83;54.01
46199;BME280;31928;52.104;10.030;2023-08-08T04:26:51;100068.88;;;17.82;53.62
46199;BME280;31928;52.104;10.030;2023-08-08T04:29:18;100080.38;;;18.14;52.45
46199;BME280;31928;52.104;10.030;2023-08-08T04:31:44;100075.16;;;17.88;53.72
46199;BME280;31928;52.104;10.030;2023-08-08T04:34:11;100065.38;;;17.87;53.55
46199;BME280;31928;52.104;10.030;2023-08-08T04:36:37;100065.22;;;18.18;52.60
46199;BME280;31928;52.104;10.030;2023-08-08T04:39:04;100078.41;;;17.90;53.60
46199;BME280;31928;52.104;10.030;2023-08-08T04:41:31;100061.03;;;17.86;53.77
46199;BME280;31928;52.104;10.030;2023-08-08T04:43:57;100048.34;;;18.11;53.12
46199;BME280;31928;52.104;10.030;2023-08-08T04:46:24;100062.69;;;17.87;53.85
46199;BME280;31928;52.104;10.030;2023-08-08T04:48:50;100066.19;;;17.82;53.82
46199;BME280;31928;52.104;10.030;2023-08-08T04:51:17;100055.31;;;17.82;53.68
46199;BME280;31928;52.104;10.030;2023-08-08T04:53:44;100046.94;;;17.79;53.91
46199;BME280;31928;52.104;10.030;2023-08-08T04:56:11;100059.38;;;17.80;54.22
46199;BME280;31928;52.104;10.030;2023-08-08T04:58:37;100055.56;;;17.76;54.27
46199;BME280;31928;52.104;10.030;2023-08-08T05:01:04;100053.44;;;17.78;54.24
46199;BME280;31928;52.104;10.030;2023-08-08T05:03:31;100049.66;;;17.79;54.32
46199;BME280;31928;52.104;10.030;2023-08-08T05:05:57;100053.13;;;17.74;54.25
46199;BME280;31928;52.104;10.030;2023-08-08T05:08:25;100056.16;;;17.78;54.57
46199;BME280;31928;52.104;10.030;2023-08-08T05:10:52;100044.22;;;17.79;54.53
46199;BME280;31928;52.104;10.030;2023-08-08T05:13:18;100043.72;;;18.11;53.22
46199;BME280;31928;52.104;10.030;2023-08-08T05:15:45;100067.00;;;17.83;54.34
46199;BME280;31928;52.104;10.030;2023-08-08T05:18:12;100053.72;;;17.81;55.13
46199;BME280;31928;52.104;10.030;2023-08-08T05:20:38;100045.34;;;18.07;54.23
46199;BME280;31928;52.104;10.030;2023-08-08T05:23:05;100040.41;;;17.85;54.72
46199;BME280;31928;52.104;10.030;2023-08-08T05:25:31;100047.19;;;17.82;55.26
46199;BME280;31928;52.104;10.030;2023-08-08T05:27:58;100043.13;;;17.85;55.08
46199;BME280;31928;52.104;10.030;2023-08-08T05:30:25;100033.16;;;18.15;53.63
46199;BME280;31928;52.104;10.030;2023-08-08T05:32:51;100020.91;;;17.88;55.04
46199;BME280;31928;52.104;10.030;2023-08-08T05:35:18;100028.78;;;17.84;55.00
46199;BME280;31928;52.104;10.030;2023-08-08T05:37:45;100029.28;;;17.86;55.25
46199;BME280;31928;52.104;10.030;2023-08-08T05:40:11;100022.31;;;18.15;54.47
46199;BME280;31928;52.104;10.030;2023-08-08T05:42:38;100024.44;;;17.93;54.78
46199;BME280;31928;52.104;10.030;2023-08-08T05:45:06;100028.50;;;17.91;55.26
46199;BME280;31928;52.104;10.030;2023-08-08T05:47:33;100039.88;;;17.93;54.93
46199;BME280;31928;52.104;10.030;2023-08-08T05:50:00;100042.88;;;17.96;55.17
46199;BME280;31928;52.104;10.030;2023-08-08T05:52:26;100036.94;;;17.99;55.36
46199;BME280;31928;52.104;10.030;2023-08-08T05:54:53;100038.38;;;18.31;53.69
46199;BME280;31928;52.104;10.030;2023-08-08T05:57:20;100028.00;;;18.08;54.66
46199;BME280;31928;52.104;10.030;2023-08-08T05:59:48;100032.59;;;18.08;54.79
46199;BME280;31928;52.104;10.030;2023-08-08T06:02:15;100042.09;;;18.10;54.72
46199;BME280;31928;52.104;10.030;2023-08-08T06:04:42;100026.66;;;18.11;55.06
46199;BME280;31928;52.104;10.030;2023-08-08T06:07:09;100034.81;;;18.16;54.66
46199;BME280;31928;52.104;10.030;2023-08-08T06:09:36;100036.72;;;18.20;55.04
46199;BME280;31928;52.104;10.030;2023-08-08T06:12:04;100037.00;;;18.24;54.89
46199;BME280;31928;52.104;10.030;2023-08-08T06:14:31;100042.72;;;18.27;54.91
46199;BME280;31928;52.104;10.030;2023-08-08T06:16:58;100039.19;;;18.32;54.48
46199;BME280;31928;52.104;10.030;2023-08-08T06:19:25;100049.47;;;18.35;54.55
46199;BME280;31928;52.104;10.030;2023-08-08T06:21:51;100045.13;;;18.39;54.42
46199;BME280;31928;52.104;10.030;2023-08-08T06:24:18;100047.06;;;18.43;54.31
46199;BME280;31928;52.104;10.030;2023-08-08T06:26:45;100045.44;;;18.47;53.95
46199;BME280;31928;52.104;10.030;2023-08-08T06:29:12;100052.78;;;18.47;54.10
46199;BME280;31928;52.104;10.030;2023-08-08T06:31:40;100042.16;;;18.50;53.67
46199;BME280;31928;52.104;10.030;2023-08-08T06:34:08;100054.66;;;18.51;53.82
46199;BME280;31928;52.104;10.030;2023-08-08T06:36:35;100048.16;;;18.52;54.14
46199;BME280;31928;52.104;10.030;2023-08-08T06:39:02;100042.16;;;18.55;53.70
46199;BME280;31928;52.104;10.030;2023-08-08T06:41:29;100059.81;;;18.58;53.70
46199;BME280;31928;52.104;10.030;2023-08-08T06:43:56;100044.06;;;18.55;54.05
46199;BME280;31928;52.104;10.030;2023-08-08T06:46:23;100070.13;;;18.61;53.86
46199;BME280;31928;52.104;10.030;2023-08-08T06:48:51;100061.72;;;18.57;53.91
46199;BME280;31928;52.104;10.030;2023-08-08T06:51:24;100055.19;;;18.63;53.98
46199;BME280;31928;52.104;10.030;2023-08-08T06:53:52;100057.91;;;18.63;54.20
46199;BME280;31928;52.104;10.030;2023-08-08T06:56:19;100051.94;;;18.66;53.97
46199;BME280;31928;52.104;10.030;2023-08-08T06:58:45;100055.19;;;18.68;54.44
46199;BME280;31928;52.104;10.030;2023-08-08T07:01:12;100054.38;;;18.72;54.29
46199;BME280;31928;52.104;10.030;2023-08-08T07:03:40;100047.88;;;18.73;53.88
46199;BME280;31928;52.104;10.030;2023-08-08T07:06:07;100052.47;;;18.68;53.84
46199;BME280;31928;52.104;10.030;2023-08-08T07:08:34;100043.75;;;18.76;54.10
46199;BME280;31928;52.104;10.030;2023-08-08T07:11:00;100051.13;;;18.80;53.95
46199;BME280;31928;52.104;10.030;2023-08-08T07:13:27;100045.97;;;18.79;53.82
46199;BME280;31928;52.104;10.030;2023-08-08T07:15:54;100050.84;;;18.82;54.16
46199;BME280;31928;52.104;10.030;2023-08-08T07:18:21;100050.81;;;18.92;54.02
46199;BME280;31928;52.104;10.030;2023-08-08T07:20:47;100052.69;;;18.96;53.85
46199;BME280;31928;52.104;10.030;2023-08-08T07:23:16;100035.63;;;19.06;53.81
46199;BME280;31928;52.104;10.030;2023-08-08T07:25:43;100048.63;;;19.14;53.94
46199;BME280;31928;52.104;10.030;2023-08-08T07:28:11;100035.56;;;19.21;53.24
46199;BME280;31928;52.104;10.030;2023-08-08T07:30:37;100050.78;;;19.27;53.28
46199;BME280;31928;52.104;10.030;2023-08-08T07:33:04;100035.53;;;19.35;52.74
46199;BME280;31928;52.104;10.030;2023-08-08T07:35:33;100035.50;;;19.45;53.01
46199;BME280;31928;52.104;10.030;2023-08-08T07:38:00;100046.88;;;19.52;52.29
46199;BME280;31928;52.104;10.030;2023-08-08T07:40:27;100041.41;;;19.62;52.88
46199;BME280;31928;52.104;10.030;2023-08-08T07:42:54;100055.50;;;19.64;52.16
46199;BME280;31928;52.104;10.030;2023-08-08T07:45:20;100024.50;;;19.65;51.98
46199;BME280;31928;52.104;10.030;2023-08-08T07:47:47;100028.84;;;19.71;52.13
46199;BME280;31928;52.104;10.030;2023-08-08T07:50:14;100037.50;;;19.78;51.85
46199;BME280;31928;52.104;10.030;2023-08-08T07:52:41;100034.19;;;19.86;51.97
46199;BME280;31928;52.104;10.030;2023-08-08T07:55:08;100029.81;;;19.95;51.65
46199;BME280;31928;52.104;10.030;2023-08-08T07:57:35;100027.63;;;19.97;50.28
46199;BME280;31928;52.104;10.030;2023-08-08T08:00:05;100028.63;;;20.11;50.71
46199;BME280;31928;52.104;10.030;2023-08-08T08:02:34;100031.88;;;20.13;50.56
46199;BME280;31928;52.104;10.030;2023-08-08T08:05:01;100032.59;;;20.23;50.75
46199;BME280;31928;52.104;10.030;2023-08-08T08:07:28;100032.84;;;20.27;49.29
46199;BME280;31928;52.104;10.030;2023-08-08T08:09:54;100027.66;;;20.30;49.48
46199;BME280;31928;52.104;10.030;2023-08-08T08:12:21;100022.50;;;20.29;48.96
46199;BME280;31928;52.104;10.030;2023-08-08T08:14:48;100027.88;;;20.34;48.77
46199;BME280;31928;52.104;10.030;2023-08-08T08:17:14;100025.72;;;20.36;48.53
46199;BME280;31928;52.104;10.030;2023-08-08T08:19:41;100024.03;;;20.40;48.49
46199;BME280;31928;52.104;10.030;2023-08-08T08:22:08;100022.94;;;20.41;48.72
46199;BME280;31928;52.104;10.030;2023-08-08T08:24:35;100020.22;;;20.41;48.30
46199;BME280;31928;52.104;10.030;2023-08-08T08:27:01;100023.19;;;20.44;48.58
46199;BME280;31928;52.104;10.030;2023-08-08T08:29:28;100013.06;;;20.50;48.47
46199;BME280;31928;52.104;10.030;2023-08-08T08:31:55;100021.25;;;20.50;48.54
46199;BME280;31928;52.104;10.030;2023-08-08T08:34:21;100005.94;;;20.53;48.28
46199;BME280;31928;52.104;10.030;2023-08-08T08:36:48;100013.59;;;20.51;47.31
46199;BME280;31928;52.104;10.030;2023-08-08T08:39:15;100008.38;;;20.55;47.57
46199;BME280;31928;52.104;10.030;2023-08-08T08:41:47;100003.19;;;20.58;46.55
46199;BME280;31928;52.104;10.030;2023-08-08T08:44:16;99979.75;;;20.57;47.45
46199;BME280;31928;52.104;10.030;2023-08-08T08:46:47;99993.44;;;20.52;47.46
46199;BME280;31928;52.104;10.030;2023-08-08T08:49:17;99994.13;;;20.63;47.57
46199;BME280;31928;52.104;10.030;2023-08-08T08:51:44;99985.16;;;20.62;45.92
46199;BME280;31928;52.104;10.030;2023-08-08T08:54:11;99992.72;;;20.70;46.20
46199;BME280;31928;52.104;10.030;2023-08-08T08:56:38;99999.19;;;20.79;47.24
46199;BME280;31928;52.104;10.030;2023-08-08T08:59:05;99978.44;;;20.83;45.78
46199;BME280;31928;52.104;10.030;2023-08-08T09:01:33;99989.28;;;20.88;46.39
46199;BME280;31928;52.104;10.030;2023-08-08T09:04:00;99982.75;;;20.89;45.87
46199;BME280;31928;52.104;10.030;2023-08-08T09:06:29;99981.13;;;20.88;46.01
46199;BME280;31928;52.104;10.030;2023-08-08T09:08:56;99976.13;;;20.95;45.36
46199;BME280;31928;52.104;10.030;2023-08-08T09:11:36;99981.50;;;21.00;45.48
46199;BME280;31928;52.104;10.030;2023-08-08T09:14:03;100006.53;;;21.07;45.75
46199;BME280;31928;52.104;10.030;2023-08-08T09:16:30;99989.59;;;21.10;45.72
46199;BME280;31928;52.104;10.030;2023-08-08T09:18:57;99986.56;;;21.12;45.54
46199;BME280;31928;52.104;10.030;2023-08-08T09:21:24;100009.88;;;20.99;44.87
46199;BME280;31928;52.104;10.030;2023-08-08T09:23:50;99983.69;;;21.03;45.04
46199;BME280;31928;52.104;10.030;2023-08-08T09:26:17;99975.56;;;20.98;45.63
46199;BME280;31928;52.104;10.030;2023-08-08T09:28:44;99984.28;;;20.95;45.65
46199;BME280;31928;52.104;10.030;2023-08-08T09:31:11;99982.97;;;20.93;46.08
46199;BME280;31928;52.104;10.030;2023-08-08T09:33:38;99971.25;;;20.92;46.38
46199;BME280;31928;52.104;10.030;2023-08-08T09:36:06;99985.97;;;20.91;46.47
46199;BME280;31928;52.104;10.030;2023-08-08T09:38:32;99975.91;;;20.92;45.37
46199;BME280;31928;52.104;10.030;2023-08-08T09:40:59;99983.78;;;20.93;45.73
46199;BME280;31928;52.104;10.030;2023-08-08T09:43:25;99977.59;;;20.88;45.97
46199;BME280;31928;52.104;10.030;2023-08-08T09:45:52;99994.19;;;20.86;45.76
46199;BME280;31928;52.104;10.030;2023-08-08T09:48:19;99992.06;;;20.83;46.58
46199;BME280;31928;52.104;10.030;2023-08-08T09:50:47;100013.34;;;20.81;48.25
46199;BME280;31928;52.104;10.030;2023-08-08T09:53:16;99995.38;;;20.80;48.42
46199;BME280;31928;52.104;10.030;2023-08-08T09:55:43;99999.25;;;20.74;48.46
46199;BME280;31928;52.104;10.030;2023-08-08T09:58:11;99997.09;;;20.66;49.35
46199;BME280;31928;52.104;10.030;2023-08-08T10:00:39;99985.22;;;20.57;49.78
46199;BME280;31928;52.104;10.030;2023-08-08T10:03:07;99994.00;;;20.50;50.76
46199;BME280;31928;52.104;10.030;2023-08-08T10:05:34;99982.63;;;20.43;51.02
46199;BME280;31928;52.104;10.030;2023-08-08T10:08:02;100008.00;;;20.38;51.80
46199;BME280;31928;52.104;10.030;2023-08-08T10:12:57;100009.94;;;20.33;50.78
46199;BME280;31928;52.104;10.030;2023-08-08T10:15:27;99968.56;;;20.31;49.30
46199;BME280;31928;52.104;10.030;2023-08-08T10:17:57;99992.75;;;20.37;49.35
46199;BME280;31928;52.104;10.030;2023-08-08T10:20:25;99984.31;;;20.34;49.68
46199;BME280;31928;52.104;10.030;2023-08-08T10:22:53;99985.44;;;20.33;50.04
46199;BME280;31928;52.104;10.030;2023-08-08T10:25:26;99987.91;;;20.29;50.98
46199;BME280;31928;52.104;10.030;2023-08-08T10:28:05;99984.88;;;20.36;50.14
46199;BME280;31928;52.104;10.030;2023-08-08T10:30:56;99995.22;;;20.34;50.57
46199;BME280;31928;52.104;10.030;2023-08-08T10:33:28;99982.13;;;20.36;51.51
46199;BME280;31928;52.104;10.030;2023-08-08T10:36:06;99986.22;;;20.38;52.38
46199;BME280;31928;52.104;10.030;2023-08-08T10:38:42;99993.13;;;20.54;51.32
46199;BME280;31928;52.104;10.030;2023-08-08T10:41:11;99993.84;;;20.64;51.39
46199;BME280;31928;52.104;10.030;2023-08-08T10:43:38;99979.81;;;20.81;50.82
46199;BME280;31928;52.104;10.030;2023-08-08T10:46:05;99971.19;;;20.97;50.28
46199;BME280;31928;52.104;10.030;2023-08-08T10:48:51;99972.00;;;21.21;48.56
46199;BME280;31928;52.104;10.030;2023-08-08T10:51:20;99964.53;;;21.31;47.39
46199;BME280;31928;52.104;10.030;2023-08-08T10:53:51;99967.28;;;21.50;47.43
46199;BME280;31928;52.104;10.030;2023-08-08T10:56:19;99976.47;;;21.59;47.78
46199;BME280;31928;52.104;10.030;2023-08-08T10:58:48;99988.84;;;21.70;46.00
46199;BME280;31928;52.104;10.030;2023-08-08T11:01:16;99973.38;;;21.83;45.54
46199;BME280;31928;52.104;10.030;2023-08-08T11:03:44;99970.50;;;21.93;44.13
46199;BME280;31928;52.104;10.030;2023-08-08T11:06:13;99963.47;;;22.06;43.87
46199;BME280;31928;52.104;10.030;2023-08-08T11:08:40;99977.56;;;22.13;43.32
46199;BME280;31928;52.104;10.030;2023-08-08T11:11:07;99988.09;;;22.19;43.05
46199;BME280;31928;52.104;10.030;2023-08-08T11:13:34;99977.63;;;22.26;43.51
46199;BME280;31928;52.104;10.030;2023-08-08T11:16:00;99968.25;;;22.32;43.47
46199;BME280;31928;52.104;10.030;2023-08-08T11:18:30;99978.06;;;22.33;43.50
46199;BME280;31928;52.104;10.030;2023-08-08T11:20:57;99975.25;;;22.38;43.37
46199;BME280;31928;52.104;10.030;2023-08-08T11:23:45;99974.97;;;22.39;43.67
46199;BME280;31928;52.104;10.030;2023-08-08T11:26:12;99981.31;;;22.35;43.82
46199;BME280;31928;52.104;10.030;2023-08-08T11:28:49;99973.63;;;22.37;44.74
46199;BME280;31928;52.104;10.030;2023-08-08T11:31:15;99964.50;;;22.28;43.35
46199;BME280;31928;52.104;10.030;2023-08-08T11:33:42;99964.72;;;22.32;43.10
46199;BME280;31928;52.104;10.030;2023-08-08T11:36:09;99978.38;;;22.32;42.79
46199;BME280;31928;52.104;10.030;2023-08-08T11:38:36;99967.06;;;22.38;42.67
46199;BME280;31928;52.104;10.030;2023-08-08T11:41:03;99957.66;;;22.44;41.68
46199;BME280;31928;52.104;10.030;2023-08-08T11:43:30;99971.16;;;22.54;42.73
46199;BME280;31928;52.104;10.030;2023-08-08T11:46:00;99954.56;;;22.64;42.46
46199;BME280;31928;52.104;10.030;2023-08-08T11:48:27;99937.38;;;22.77;42.23
46199;BME280;31928;52.104;10.030;2023-08-08T11:50:53;99941.53;;;22.88;42.14
46199;BME280;31928;52.104;10.030;2023-08-08T11:53:20;99941.06;;;22.99;42.07
46199;BME280;31928;52.104;10.030;2023-08-08T11:55:49;99942.19;;;23.11;41.71
46199;BME280;31928;52.104;10.030;2023-08-08T11:58:17;99938.31;;;23.26;41.14
46199;BME280;31928;52.104;10.030;2023-08-08T12:00:43;99936.69;;;23.38;40.52
46199;BME280;31928;52.104;10.030;2023-08-08T12:03:12;99926.03;;;23.50;38.26
46199;BME280;31928;52.104;10.030;2023-08-08T12:05:41;99935.25;;;23.54;37.18
46199;BME280;31928;52.104;10.030;2023-08-08T12:08:07;99944.97;;;23.60;37.63
46199;BME280;31928;52.104;10.030;2023-08-08T12:10:35;99931.16;;;23.65;37.21
46199;BME280;31928;52.104;10.030;2023-08-08T12:13:02;99943.84;;;23.61;37.47
46199;BME280;31928;52.104;10.030;2023-08-08T12:15:32;99950.13;;;23.61;38.01
46199;BME280;31928;52.104;10.030;2023-08-08T12:18:02;99936.06;;;23.55;37.17
46199;BME280;31928;52.104;10.030;2023-08-08T12:20:30;99944.06;;;23.51;37.83
46199;BME280;31928;52.104;10.030;2023-08-08T12:22:58;99937.28;;;23.49;38.04
46199;BME280;31928;52.104;10.030;2023-08-08T12:25:25;99939.31;;;23.43;36.24
46199;BME280;31928;52.104;10.030;2023-08-08T12:27:52;99931.44;;;23.42;35.57
46199;BME280;31928;52.104;10.030;2023-08-08T12:30:19;99931.28;;;23.47;37.19
46199;BME280;31928;52.104;10.030;2023-08-08T12:32:45;99935.25;;;23.54;37.54
46199;BME280;31928;52.104;10.030;2023-08-08T12:35:12;99922.44;;;23.63;36.30
46199;BME280;31928;52.104;10.030;2023-08-08T12:37:39;99916.78;;;23.73;36.21
46199;BME280;31928;52.104;10.030;2023-08-08T12:40:06;99923.81;;;23.87;36.42
46199;BME280;31928;52.104;10.030;2023-08-08T12:42:33;99917.16;;;24.02;36.69
46199;BME280;31928;52.104;10.030;2023-08-08T12:45:00;99914.69;;;24.14;36.61
46199;BME280;31928;52.104;10.030;2023-08-08T12:47:27;99928.25;;;24.19;35.65
46199;BME280;31928;52.104;10.030;2023-08-08T12:49:56;99947.81;;;24.25;35.51
46199;BME280;31928;52.104;10.030;2023-08-08T12:52:22;99938.06;;;24.19;34.87
46199;BME280;31928;52.104;10.030;2023-08-08T12:54:51;99951.47;;;24.21;34.85
46199;BME280;31928;52.104;10.030;2023-08-08T12:57:18;99925.81;;;24.17;34.89
46199;BME280;31928;52.104;10.030;2023-08-08T12:59:45;99928.19;;;24.10;35.40
46199;BME280;31928;52.104;10.030;2023-08-08T13:02:12;99919.28;;;24.05;35.38
46199;BME280;31928;52.104;10.030;2023-08-08T13:04:39;99934.09;;;24.04;36.18
46199;BME280;31928;52.104;10.030;2023-08-08T13:07:05;99937.31;;;24.06;35.45
46199;BME280;31928;52.104;10.030;2023-08-08T13:09:32;99911.25;;;24.08;35.85
46199;BME280;31928;52.104;10.030;2023-08-08T13:11:59;99899.38;;;24.13;35.10
46199;BME280;31928;52.104;10.030;2023-08-08T13:14:26;99917.16;;;24.23;35.10
46199;BME280;31928;52.104;10.030;2023-08-08T13:16:52;99919.44;;;24.30;35.39
46199;BME280;31928;52.104;10.030;2023-08-08T13:19:20;99914.88;;;24.39;35.38
46199;BME280;31928;52.104;10.030;2023-08-08T13:21:47;99924.06;;;24.43;34.88
46199;BME280;31928;52.104;10.030;2023-08-08T13:24:17;99915.47;;;24.36;34.84
46199;BME280;31928;52.104;10.030;2023-08-08T13:26:43;99934.56;;;24.27;35.27
46199;BME280;31928;52.104;10.030;2023-08-08T13:29:11;99936.31;;;24.23;35.72
46199;BME280;31928;52.104;10.030;2023-08-08T13:31:38;99933.22;;;24.17;36.17
46199;BME280;31928;52.104;10.030;2023-08-08T13:34:05;99924.94;;;24.08;36.20
46199;BME280;31928;52.104;10.030;2023-08-08T13:36:31;99933.47;;;24.07;36.34
46199;BME280;31928;52.104;10.030;2023-08-08T13:38:58;99942.00;;;24.05;36.24
46199;BME280;31928;52.104;10.030;2023-08-08T13:41:25;99935.09;;;23.86;34.69
46199;BME280;31928;52.104;10.030;2023-08-08T13:43:51;99925.63;;;23.92;35.52
46199;BME280;31928;52.104;10.030;2023-08-08T13:46:18;99953.63;;;23.89;35.66
46199;BME280;31928;52.104;10.030;2023-08-08T13:48:45;99922.03;;;23.83;35.22
46199;BME280;31928;52.104;10.030;2023-08-08T13:51:11;99955.47;;;23.80;34.68
46199;BME280;31928;52.104;10.030;2023-08-08T13:53:38;99916.25;;;23.71;33.51
46199;BME280;31928;52.104;10.030;2023-08-08T13:56:05;99942.53;;;23.72;34.20
46199;BME280;31928;52.104;10.030;2023-08-08T13:58:32;99930.94;;;23.75;34.85
46199;BME280;31928;52.104;10.030;2023-08-08T14:00:58;99922.13;;;23.78;34.79
46199;BME280;31928;52.104;10.030;2023-08-08T14:03:25;99916.53;;;23.83;35.04
46199;BME280;31928;52.104;10.030;2023-08-08T14:05:52;99920.75;;;23.89;34.85
46199;BME280;31928;52.104;10.030;2023-08-08T14:08:19;99920.72;;;24.02;35.47
46199;BME280;31928;52.104;10.030;2023-08-08T14:10:47;99935.28;;;24.11;34.74
46199;BME280;31928;52.104;10.030;2023-08-08T14:13:13;99920.03;;;24.19;34.88
46199;BME280;31928;52.104;10.030;2023-08-08T14:15:40;99904.44;;;24.27;34.42
46199;BME280;31928;52.104;10.030;2023-08-08T14:18:07;99926.44;;;24.36;34.75
46199;BME280;31928;52.104;10.030;2023-08-08T14:20:34;99911.66;;;24.45;34.77
46199;BME280;31928;52.104;10.030;2023-08-08T14:23:01;99914.78;;;24.52;34.49
46199;BME280;31928;52.104;10.030;2023-08-08T14:25:27;99925.13;;;24.55;33.86
46199;BME280;31928;52.104;10.030;2023-08-08T14:27:56;99921.91;;;24.53;34.31
46199;BME280;31928;52.104;10.030;2023-08-08T14:30:27;99918.47;;;24.48;33.72
46199;BME280;31928;52.104;10.030;2023-08-08T14:32:54;99922.16;;;24.43;33.97
46199;BME280;31928;52.104;10.030;2023-08-08T14:35:21;99922.88;;;24.35;33.89
46199;BME280;31928;52.104;10.030;2023-08-08T14:37:48;99936.22;;;24.28;34.60
46199;BME280;31928;52.104;10.030;2023-08-08T14:40:15;99936.84;;;24.25;35.12
46199;BME280;31928;52.104;10.030;2023-08-08T14:42:42;99936.97;;;24.20;35.14
46199;BME280;31928;52.104;10.030;2023-08-08T14:45:09;99947.56;;;24.14;34.72
46199;BME280;31928;52.104;10.030;2023-08-08T14:47:36;99955.91;;;24.09;35.08
46199;BME280;31928;52.104;10.030;2023-08-08T14:50:03;99945.38;;;24.02;35.09
46199;BME280;31928;52.104;10.030;2023-08-08T14:52:30;99942.56;;;23.94;35.13
46199;BME280;31928;52.104;10.030;2023-08-08T14:54:57;99940.75;;;23.89;35.48
46199;BME280;31928;52.104;10.030;2023-08-08T14:57:23;99958.72;;;23.82;35.20
46199;BME280;31928;52.104;10.030;2023-08-08T14:59:50;99961.56;;;23.77;36.32
46199;BME280;31928;52.104;10.030;2023-08-08T15:02:17;99967.69;;;23.74;36.11
46199;BME280;31928;52.104;10.030;2023-08-08T15:04:44;99968.38;;;23.66;35.93
46199;BME280;31928;52.104;10.030;2023-08-08T15:07:11;99964.00;;;23.65;36.51
46199;BME280;31928;52.104;10.030;2023-08-08T15:09:38;99981.03;;;23.62;36.78
46199;BME280;31928;52.104;10.030;2023-08-08T15:12:05;99978.59;;;23.60;36.58
46199;BME280;31928;52.104;10.030;2023-08-08T15:14:31;99970.72;;;23.59;35.96
46199;BME280;31928;52.104;10.030;2023-08-08T15:16:58;99983.28;;;23.60;35.72
46199;BME280;31928;52.104;10.030;2023-08-08T15:19:25;99975.38;;;23.58;35.00
46199;BME280;31928;52.104;10.030;2023-08-08T15:21:53;100020.81;;;23.59;35.07
46199;BME280;31928;52.104;10.030;2023-08-08T15:24:20;99993.22;;;23.56;35.42
46199;BME280;31928;52.104;10.030;2023-08-08T15:26:47;99978.53;;;23.52;35.76
46199;BME280;31928;52.104;10.030;2023-08-08T15:29:13;99988.97;;;23.50;35.65
46199;BME280;31928;52.104;10.030;2023-08-08T15:31:40;99985.75;;;23.48;36.45
46199;BME280;31928;52.104;10.030;2023-08-08T15:34:07;99980.38;;;23.43;36.17
46199;BME280;31928;52.104;10.030;2023-08-08T15:36:34;99994.66;;;23.40;36.56
46199;BME280;31928;52.104;10.030;2023-08-08T15:39:00;99999.72;;;23.33;36.88
46199;BME280;31928;52.104;10.030;2023-08-08T15:41:27;99995.97;;;23.29;37.01
46199;BME280;31928;52.104;10.030;2023-08-08T15:43:54;100005.91;;;23.25;37.14
46199;BME280;31928;52.104;10.030;2023-08-08T15:46:20;100006.53;;;23.22;37.25
46199;BME280;31928;52.104;10.030;2023-08-08T15:48:47;100024.63;;;23.18;38.46
46199;BME280;31928;52.104;10.030;2023-08-08T15:51:13;100029.94;;;23.15;40.16